sensor_id;sensor_type;location;lat;lon;timestamp;temperature;humidity
67603;DHT22;54417;47.454;18.918;2022-08-19T00:01:34;25.32;55.32
67603;DHT22;54417;47.454;18.918;2022-08-19T00:07:00;25.15;55.59
67603;DHT22;54417;47.454;18.918;2022-08-19T00:12:25;25.07;55.95
67603;DHT22;54417;47.454;18.918;2022-08-19T00:17:49;24.83;57.52
67603;DHT22;54417;47.454;18.918;2022-08-19T00:23:14;24.57;57.55
67603;DHT22;54417;47.454;18.918;2022-08-19T00:28:38;24.26;59.43
67603;DHT22;54417;47.454;18.918;2022-08-19T00:34:02;24.20;59.32
67603;DHT22;54417;47.454;18.918;2022-08-19T00:39:27;23.88;60.32
67603;DHT22;54417;47.454;18.918;2022-08-19T00:44:52;23.67;61.72
67603;DHT22;54417;47.454;18.918;2022-08-19T00:50:18;23.82;60.10
67603;DHT22;54417;47.454;18.918;2022-08-19T00:55:46;24.25;58.72
67603;DHT22;54417;47.454;18.918;2022-08-19T01:01:12;24.19;58.92
67603;DHT22;54417;47.454;18.918;2022-08-19T01:06:38;24.32;58.16
67603;DHT22;54417;47.454;18.918;2022-08-19T01:12:04;24.12;59.01
67603;DHT22;54417;47.454;18.918;2022-08-19T01:17:28;24.28;58.36
67603;DHT22;54417;47.454;18.918;2022-08-19T01:22:55;24.61;57.47
67603;DHT22;54417;47.454;18.918;2022-08-19T01:28:23;24.37;58.25
67603;DHT22;54417;47.454;18.918;2022-08-19T01:34:01;24.41;57.90
67603;DHT22;54417;47.454;18.918;2022-08-19T01:39:26;24.35;58.06
67603;DHT22;54417;47.454;18.918;2022-08-19T01:44:50;24.53;57.76
67603;DHT22;54417;47.454;18.918;2022-08-19T01:50:14;24.59;57.10
67603;DHT22;54417;47.454;18.918;2022-08-19T01:55:42;24.52;57.62
67603;DHT22;54417;47.454;18.918;2022-08-19T02:01:06;24.40;58.46
67603;DHT22;54417;47.454;18.918;2022-08-19T02:06:30;24.33;58.00
67603;DHT22;54417;47.454;18.918;2022-08-19T02:11:56;24.26;58.48
67603;DHT22;54417;47.454;18.918;2022-08-19T02:17:20;24.16;58.82
67603;DHT22;54417;47.454;18.918;2022-08-19T02:22:44;23.94;59.87
67603;DHT22;54417;47.454;18.918;2022-08-19T02:28:09;23.88;59.63
67603;DHT22;54417;47.454;18.918;2022-08-19T02:33:39;23.77;59.96
67603;DHT22;54417;47.454;18.918;2022-08-19T02:39:03;23.75;59.89
67603;DHT22;54417;47.454;18.918;2022-08-19T02:44:28;23.88;59.33
67603;DHT22;54417;47.454;18.918;2022-08-19T02:49:53;23.84;59.84
67603;DHT22;54417;47.454;18.918;2022-08-19T02:55:17;23.95;59.07
67603;DHT22;54417;47.454;18.918;2022-08-19T03:00:44;23.94;59.25
67603;DHT22;54417;47.454;18.918;2022-08-19T03:06:10;23.91;59.31
67603;DHT22;54417;47.454;18.918;2022-08-19T03:11:34;23.71;60.32
67603;DHT22;54417;47.454;18.918;2022-08-19T03:17:00;23.39;61.46
67603;DHT22;54417;47.454;18.918;2022-08-19T03:22:25;23.26;61.77
67603;DHT22;54417;47.454;18.918;2022-08-19T03:27:49;23.03;62.80
67603;DHT22;54417;47.454;18.918;2022-08-19T03:33:14;22.88;63.29
67603;DHT22;54417;47.454;18.918;2022-08-19T03:38:48;22.65;64.56
67603;DHT22;54417;47.454;18.918;2022-08-19T03:44:19;22.52;64.96
67603;DHT22;54417;47.454;18.918;2022-08-19T03:49:45;22.40;65.70
67603;DHT22;54417;47.454;18.918;2022-08-19T03:55:09;22.28;65.77
67603;DHT22;54417;47.454;18.918;2022-08-19T04:00:32;22.40;64.84
67603;DHT22;54417;47.454;18.918;2022-08-19T04:05:58;22.30;66.14
67603;DHT22;54417;47.454;18.918;2022-08-19T04:11:23;22.27;66.73
67603;DHT22;54417;47.454;18.918;2022-08-19T04:17:05;22.33;67.01
67603;DHT22;54417;47.454;18.918;2022-08-19T04:22:30;22.30;67.09
67603;DHT22;54417;47.454;18.918;2022-08-19T04:27:54;22.30;68.17
67603;DHT22;54417;47.454;18.918;2022-08-19T04:33:22;22.40;68.09
67603;DHT22;54417;47.454;18.918;2022-08-19T04:38:54;22.56;66.66
67603;DHT22;54417;47.454;18.918;2022-08-19T04:44:18;22.75;66.20
67603;DHT22;54417;47.454;18.918;2022-08-19T04:49:42;22.83;67.80
67603;DHT22;54417;47.454;18.918;2022-08-19T04:55:08;22.93;67.59
67603;DHT22;54417;47.454;18.918;2022-08-19T05:00:32;23.20;65.89
67603;DHT22;54417;47.454;18.918;2022-08-19T05:06:04;23.57;63.40
67603;DHT22;54417;47.454;18.918;2022-08-19T05:11:33;24.26;59.83
67603;DHT22;54417;47.454;18.918;2022-08-19T05:16:57;24.74;58.44
67603;DHT22;54417;47.454;18.918;2022-08-19T05:22:43;25.35;56.05
67603;DHT22;54417;47.454;18.918;2022-08-19T05:28:08;25.74;55.28
67603;DHT22;54417;47.454;18.918;2022-08-19T05:33:32;25.96;54.98
67603;DHT22;54417;47.454;18.918;2022-08-19T05:38:56;26.28;53.55
67603;DHT22;54417;47.454;18.918;2022-08-19T05:44:21;26.41;53.17
67603;DHT22;54417;47.454;18.918;2022-08-19T05:49:44;26.63;52.72
67603;DHT22;54417;47.454;18.918;2022-08-19T05:55:08;26.78;52.06
67603;DHT22;54417;47.454;18.918;2022-08-19T06:00:34;27.02;51.43
67603;DHT22;54417;47.454;18.918;2022-08-19T06:05:58;27.27;50.55
67603;DHT22;54417;47.454;18.918;2022-08-19T06:11:34;27.46;49.67
67603;DHT22;54417;47.454;18.918;2022-08-19T06:16:59;27.62;49.70
67603;DHT22;54417;47.454;18.918;2022-08-19T06:22:28;27.84;48.87
67603;DHT22;54417;47.454;18.918;2022-08-19T06:27:52;28.12;48.56
67603;DHT22;54417;47.454;18.918;2022-08-19T06:33:37;28.16;47.97
67603;DHT22;54417;47.454;18.918;2022-08-19T06:39:05;28.36;48.09
67603;DHT22;54417;47.454;18.918;2022-08-19T06:44:30;28.53;47.21
67603;DHT22;54417;47.454;18.918;2022-08-19T06:50:06;28.59;47.54
67603;DHT22;54417;47.454;18.918;2022-08-19T06:55:30;28.86;46.82
67603;DHT22;54417;47.454;18.918;2022-08-19T07:00:54;28.83;46.65
67603;DHT22;54417;47.454;18.918;2022-08-19T07:06:21;28.98;46.53
67603;DHT22;54417;47.454;18.918;2022-08-19T07:12:06;29.25;46.55
67603;DHT22;54417;47.454;18.918;2022-08-19T07:17:31;29.38;45.87
67603;DHT22;54417;47.454;18.918;2022-08-19T07:22:57;29.36;45.97
67603;DHT22;54417;47.454;18.918;2022-08-19T07:28:21;29.72;44.88
67603;DHT22;54417;47.454;18.918;2022-08-19T07:33:48;29.91;44.45
67603;DHT22;54417;47.454;18.918;2022-08-19T07:39:18;30.23;43.86
67603;DHT22;54417;47.454;18.918;2022-08-19T07:44:42;30.45;43.66
67603;DHT22;54417;47.454;18.918;2022-08-19T07:50:12;30.68;43.31
67603;DHT22;54417;47.454;18.918;2022-08-19T07:55:37;31.14;41.85
67603;DHT22;54417;47.454;18.918;2022-08-19T08:01:06;31.41;41.29
67603;DHT22;54417;47.454;18.918;2022-08-19T08:06:30;31.31;40.54
67603;DHT22;54417;47.454;18.918;2022-08-19T08:12:15;31.40;39.91
67603;DHT22;54417;47.454;18.918;2022-08-19T08:17:56;31.40;40.18
67603;DHT22;54417;47.454;18.918;2022-08-19T08:23:20;31.82;39.76
67603;DHT22;54417;47.454;18.918;2022-08-19T08:28:49;32.19;39.85
67603;DHT22;54417;47.454;18.918;2022-08-19T08:34:13;32.37;37.91
67603;DHT22;54417;47.454;18.918;2022-08-19T08:39:37;32.78;36.37
67603;DHT22;54417;47.454;18.918;2022-08-19T08:45:06;32.74;35.84
67603;DHT22;54417;47.454;18.918;2022-08-19T08:50:41;33.12;35.55
67603;DHT22;54417;47.454;18.918;2022-08-19T08:56:06;33.21;34.72
67603;DHT22;54417;47.454;18.918;2022-08-19T09:01:39;33.24;35.06
67603;DHT22;54417;47.454;18.918;2022-08-19T09:07:17;33.39;35.26
67603;DHT22;54417;47.454;18.918;2022-08-19T09:13:04;33.49;35.05
67603;DHT22;54417;47.454;18.918;2022-08-19T09:18:40;33.58;34.80
67603;DHT22;54417;47.454;18.918;2022-08-19T09:24:05;33.68;34.84
67603;DHT22;54417;47.454;18.918;2022-08-19T09:29:29;33.76;34.93
67603;DHT22;54417;47.454;18.918;2022-08-19T09:34:54;33.93;34.60
67603;DHT22;54417;47.454;18.918;2022-08-19T09:40:20;33.96;34.79
67603;DHT22;54417;47.454;18.918;2022-08-19T09:45:46;33.89;34.28
67603;DHT22;54417;47.454;18.918;2022-08-19T09:51:12;34.03;34.20
67603;DHT22;54417;47.454;18.918;2022-08-19T09:56:37;34.00;35.05
67603;DHT22;54417;47.454;18.918;2022-08-19T10:02:03;34.07;35.45
67603;DHT22;54417;47.454;18.918;2022-08-19T10:07:33;34.30;34.13
67603;DHT22;54417;47.454;18.918;2022-08-19T10:12:58;34.43;33.90
67603;DHT22;54417;47.454;18.918;2022-08-19T10:18:23;34.52;33.69
67603;DHT22;54417;47.454;18.918;2022-08-19T10:23:50;34.79;33.03
67603;DHT22;54417;47.454;18.918;2022-08-19T10:29:14;34.75;32.98
67603;DHT22;54417;47.454;18.918;2022-08-19T10:34:54;34.86;32.84
67603;DHT22;54417;47.454;18.918;2022-08-19T10:40:20;35.00;32.90
67603;DHT22;54417;47.454;18.918;2022-08-19T10:45:51;35.20;31.95
67603;DHT22;54417;47.454;18.918;2022-08-19T10:51:16;35.47;31.99
67603;DHT22;54417;47.454;18.918;2022-08-19T10:57:09;35.73;31.92
67603;DHT22;54417;47.454;18.918;2022-08-19T11:02:32;35.76;30.80
67603;DHT22;54417;47.454;18.918;2022-08-19T11:07:56;35.83;31.02
67603;DHT22;54417;47.454;18.918;2022-08-19T11:13:25;35.91;30.00
67603;DHT22;54417;47.454;18.918;2022-08-19T11:18:51;36.17;30.54
67603;DHT22;54417;47.454;18.918;2022-08-19T11:24:17;36.27;29.65
67603;DHT22;54417;47.454;18.918;2022-08-19T11:29:44;36.48;29.91
67603;DHT22;54417;47.454;18.918;2022-08-19T11:35:08;36.76;29.94
67603;DHT22;54417;47.454;18.918;2022-08-19T11:40:33;36.89;29.25
67603;DHT22;54417;47.454;18.918;2022-08-19T11:45:58;37.07;29.25
67603;DHT22;54417;47.454;18.918;2022-08-19T11:51:23;36.97;29.30
67603;DHT22;54417;47.454;18.918;2022-08-19T11:56:48;37.27;30.11
67603;DHT22;54417;47.454;18.918;2022-08-19T12:02:13;37.58;28.25
67603;DHT22;54417;47.454;18.918;2022-08-19T12:07:37;37.49;29.48
67603;DHT22;54417;47.454;18.918;2022-08-19T12:13:02;37.76;27.98
67603;DHT22;54417;47.454;18.918;2022-08-19T12:18:27;38.15;27.94
67603;DHT22;54417;47.454;18.918;2022-08-19T12:23:51;38.56;28.17
67603;DHT22;54417;47.454;18.918;2022-08-19T12:29:17;38.44;27.64
67603;DHT22;54417;47.454;18.918;2022-08-19T12:34:46;38.43;27.82
67603;DHT22;54417;47.454;18.918;2022-08-19T12:40:11;38.29;27.31
67603;DHT22;54417;47.454;18.918;2022-08-19T12:45:35;38.24;27.47
67603;DHT22;54417;47.454;18.918;2022-08-19T12:51:08;38.26;27.32
67603;DHT22;54417;47.454;18.918;2022-08-19T12:56:36;38.40;26.63
67603;DHT22;54417;47.454;18.918;2022-08-19T13:02:00;38.13;27.40
67603;DHT22;54417;47.454;18.918;2022-08-19T13:07:25;37.69;27.91
67603;DHT22;54417;47.454;18.918;2022-08-19T13:12:51;37.13;28.30
67603;DHT22;54417;47.454;18.918;2022-08-19T13:18:15;37.53;28.28
67603;DHT22;54417;47.454;18.918;2022-08-19T13:23:41;37.61;28.52
67603;DHT22;54417;47.454;18.918;2022-08-19T13:29:05;37.53;28.66
67603;DHT22;54417;47.454;18.918;2022-08-19T13:34:46;37.76;29.51
67603;DHT22;54417;47.454;18.918;2022-08-19T13:40:14;37.76;30.41
67603;DHT22;54417;47.454;18.918;2022-08-19T13:45:40;36.36;33.38
67603;DHT22;54417;47.454;18.918;2022-08-19T13:51:05;35.12;35.91
67603;DHT22;54417;47.454;18.918;2022-08-19T13:56:30;34.10;37.92
67603;DHT22;54417;47.454;18.918;2022-08-19T14:01:57;33.28;39.31
67603;DHT22;54417;47.454;18.918;2022-08-19T14:07:21;33.17;39.25
67603;DHT22;54417;47.454;18.918;2022-08-19T14:12:47;33.19;38.24
67603;DHT22;54417;47.454;18.918;2022-08-19T14:18:11;33.41;38.18
67603;DHT22;54417;47.454;18.918;2022-08-19T14:23:35;33.14;38.16
67603;DHT22;54417;47.454;18.918;2022-08-19T14:29:00;33.04;34.97
67603;DHT22;54417;47.454;18.918;2022-08-19T14:34:24;32.76;32.71
67603;DHT22;54417;47.454;18.918;2022-08-19T14:39:48;32.39;33.10
67603;DHT22;54417;47.454;18.918;2022-08-19T14:45:13;32.47;32.97
67603;DHT22;54417;47.454;18.918;2022-08-19T14:50:37;32.32;33.55
67603;DHT22;54417;47.454;18.918;2022-08-19T14:56:01;32.44;33.50
67603;DHT22;54417;47.454;18.918;2022-08-19T15:01:31;31.99;33.64
67603;DHT22;54417;47.454;18.918;2022-08-19T15:06:55;31.92;33.89
67603;DHT22;54417;47.454;18.918;2022-08-19T15:12:18;31.75;34.28
67603;DHT22;54417;47.454;18.918;2022-08-19T15:17:45;31.57;34.35
67603;DHT22;54417;47.454;18.918;2022-08-19T15:23:09;31.24;34.75
67603;DHT22;54417;47.454;18.918;2022-08-19T15:28:33;31.02;35.16
67603;DHT22;54417;47.454;18.918;2022-08-19T15:33:59;30.71;35.56
67603;DHT22;54417;47.454;18.918;2022-08-19T15:39:22;30.49;35.89
67603;DHT22;54417;47.454;18.918;2022-08-19T15:44:46;30.41;36.03
67603;DHT22;54417;47.454;18.918;2022-08-19T15:50:14;30.28;36.45
67603;DHT22;54417;47.454;18.918;2022-08-19T15:55:42;30.20;36.84
67603;DHT22;54417;47.454;18.918;2022-08-19T16:01:06;30.08;37.49
67603;DHT22;54417;47.454;18.918;2022-08-19T16:06:52;29.90;37.58
67603;DHT22;54417;47.454;18.918;2022-08-19T16:12:16;29.93;37.89
67603;DHT22;54417;47.454;18.918;2022-08-19T16:17:40;29.73;38.41
67603;DHT22;54417;47.454;18.918;2022-08-19T16:23:19;29.52;39.31
67603;DHT22;54417;47.454;18.918;2022-08-19T16:28:44;29.26;40.45
67603;DHT22;54417;47.454;18.918;2022-08-19T16:34:10;28.95;41.37
67603;DHT22;54417;47.454;18.918;2022-08-19T16:39:36;28.83;42.19
67603;DHT22;54417;47.454;18.918;2022-08-19T16:45:01;28.68;42.81
67603;DHT22;54417;47.454;18.918;2022-08-19T16:50:26;28.46;43.38
67603;DHT22;54417;47.454;18.918;2022-08-19T16:56:11;28.33;43.16
67603;DHT22;54417;47.454;18.918;2022-08-19T17:01:35;28.33;43.53
67603;DHT22;54417;47.454;18.918;2022-08-19T17:06:59;28.17;44.47
67603;DHT22;54417;47.454;18.918;2022-08-19T17:12:24;27.78;45.42
67603;DHT22;54417;47.454;18.918;2022-08-19T17:17:58;27.38;44.57
67603;DHT22;54417;47.454;18.918;2022-08-19T17:23:22;25.36;57.42
67603;DHT22;54417;47.454;18.918;2022-08-19T17:29:06;24.26;59.03
67603;DHT22;54417;47.454;18.918;2022-08-19T17:34:30;24.64;55.44
67603;DHT22;54417;47.454;18.918;2022-08-19T17:39:54;25.26;52.43
67603;DHT22;54417;47.454;18.918;2022-08-19T17:45:20;25.86;48.95
67603;DHT22;54417;47.454;18.918;2022-08-19T17:50:44;26.34;46.67
67603;DHT22;54417;47.454;18.918;2022-08-19T17:56:10;26.69;45.26
67603;DHT22;54417;47.454;18.918;2022-08-19T18:01:36;26.89;45.74
67603;DHT22;54417;47.454;18.918;2022-08-19T18:07:15;26.55;54.10
67603;DHT22;54417;47.454;18.918;2022-08-19T18:12:42;26.05;53.68
67603;DHT22;54417;47.454;18.918;2022-08-19T18:18:07;25.04;59.41
67603;DHT22;54417;47.454;18.918;2022-08-19T18:23:37;24.81;60.82
67603;DHT22;54417;47.454;18.918;2022-08-19T18:29:07;24.94;61.49
67603;DHT22;54417;47.454;18.918;2022-08-19T18:34:34;24.78;63.37
67603;DHT22;54417;47.454;18.918;2022-08-19T18:39:58;24.22;68.61
67603;DHT22;54417;47.454;18.918;2022-08-19T18:45:40;23.89;71.76
67603;DHT22;54417;47.454;18.918;2022-08-19T18:51:24;23.37;76.53
67603;DHT22;54417;47.454;18.918;2022-08-19T18:56:51;22.69;78.16
67603;DHT22;54417;47.454;18.918;2022-08-19T19:02:16;21.22;91.44
67603;DHT22;54417;47.454;18.918;2022-08-19T19:07:42;20.23;95.45
67603;DHT22;54417;47.454;18.918;2022-08-19T19:13:06;19.78;96.80
67603;DHT22;54417;47.454;18.918;2022-08-19T19:18:30;19.82;96.83
67603;DHT22;54417;47.454;18.918;2022-08-19T19:23:56;19.98;97.24
67603;DHT22;54417;47.454;18.918;2022-08-19T19:29:20;19.53;97.06
67603;DHT22;54417;47.454;18.918;2022-08-19T19:34:44;19.64;97.37
67603;DHT22;54417;47.454;18.918;2022-08-19T19:40:09;19.67;95.62
67603;DHT22;54417;47.454;18.918;2022-08-19T19:45:33;19.71;96.86
67603;DHT22;54417;47.454;18.918;2022-08-19T19:50:59;19.71;97.09
67603;DHT22;54417;47.454;18.918;2022-08-19T19:56:24;19.70;97.25
67603;DHT22;54417;47.454;18.918;2022-08-19T20:01:48;19.70;96.76
67603;DHT22;54417;47.454;18.918;2022-08-19T20:07:16;19.98;97.20
67603;DHT22;54417;47.454;18.918;2022-08-19T20:13:01;20.16;96.53
67603;DHT22;54417;47.454;18.918;2022-08-19T20:18:25;20.42;93.99
67603;DHT22;54417;47.454;18.918;2022-08-19T20:23:49;20.39;94.50
67603;DHT22;54417;47.454;18.918;2022-08-19T20:29:32;20.35;94.93
67603;DHT22;54417;47.454;18.918;2022-08-19T20:35:03;20.33;95.53
67603;DHT22;54417;47.454;18.918;2022-08-19T20:40:28;20.44;95.68
67603;DHT22;54417;47.454;18.918;2022-08-19T20:45:54;20.49;95.82
67603;DHT22;54417;47.454;18.918;2022-08-19T20:51:18;20.60;95.99
67603;DHT22;54417;47.454;18.918;2022-08-19T20:56:42;20.52;95.41
67603;DHT22;54417;47.454;18.918;2022-08-19T21:02:07;20.32;96.40
67603;DHT22;54417;47.454;18.918;2022-08-19T21:07:32;20.23;96.67
67603;DHT22;54417;47.454;18.918;2022-08-19T21:13:00;20.23;96.34
67603;DHT22;54417;47.454;18.918;2022-08-19T21:18:26;20.29;96.84
67603;DHT22;54417;47.454;18.918;2022-08-19T21:23:50;20.22;97.06
67603;DHT22;54417;47.454;18.918;2022-08-19T21:29:14;20.08;97.30
67603;DHT22;54417;47.454;18.918;2022-08-19T21:34:39;19.95;97.70
67603;DHT22;54417;47.454;18.918;2022-08-19T21:40:08;19.91;97.83
67603;DHT22;54417;47.454;18.918;2022-08-19T21:45:32;20.01;97.19
67603;DHT22;54417;47.454;18.918;2022-08-19T21:50:58;19.92;97.02
67603;DHT22;54417;47.454;18.918;2022-08-19T21:56:21;19.98;97.70
67603;DHT22;54417;47.454;18.918;2022-08-19T22:01:45;20.15;98.01
67603;DHT22;54417;47.454;18.918;2022-08-19T22:07:21;20.11;98.03
67603;DHT22;54417;47.454;18.918;2022-08-19T22:12:45;20.04;98.08
67603;DHT22;54417;47.454;18.918;2022-08-19T22:18:13;20.08;98.11
67603;DHT22;54417;47.454;18.918;2022-08-19T22:23:42;20.14;98.07
67603;DHT22;54417;47.454;18.918;2022-08-19T22:29:06;20.14;98.27
67603;DHT22;54417;47.454;18.918;2022-08-19T22:34:30;20.14;98.34
67603;DHT22;54417;47.454;18.918;2022-08-19T22:39:56;20.14;98.37
67603;DHT22;54417;47.454;18.918;2022-08-19T22:45:21;20.14;98.35
67603;DHT22;54417;47.454;18.918;2022-08-19T22:50:46;20.18;98.46
67603;DHT22;54417;47.454;18.918;2022-08-19T22:56:26;20.21;98.31
67603;DHT22;54417;47.454;18.918;2022-08-19T23:01:50;20.14;98.33
67603;DHT22;54417;47.454;18.918;2022-08-19T23:07:15;20.04;98.16
67603;DHT22;54417;47.454;18.918;2022-08-19T23:12:44;19.98;98.01
67603;DHT22;54417;47.454;18.918;2022-08-19T23:18:09;19.99;98.20
67603;DHT22;54417;47.454;18.918;2022-08-19T23:23:32;19.95;98.18
67603;DHT22;54417;47.454;18.918;2022-08-19T23:29:02;19.85;98.13
67603;DHT22;54417;47.454;18.918;2022-08-19T23:34:44;19.88;98.31
67603;DHT22;54417;47.454;18.918;2022-08-19T23:40:08;19.78;97.66
67603;DHT22;54417;47.454;18.918;2022-08-19T23:45:36;19.73;97.63
67603;DHT22;54417;47.454;18.918;2022-08-19T23:51:02;19.75;97.82
67603;DHT22;54417;47.454;18.918;2022-08-19T23:56:26;19.81;98.15
